Linhai, China
Current Conditions -  °F | °C
As of 2:00 AM on Tuesday 27 Jan 2015 (Local Time) from ZSNB Reporting Station
Broken Clouds Broken Clouds  
Wind Chill: 43°   Ceiling: 1600
Heat Index: 46°   Visibility: 4mi
Dew Point: 41°   Wind: 7mph
Humidity: 81%   Direction: 10°N
Pressure: 30.3"   Gusts: NA
Location:  28.84°N, 121.11°E
Report Text: ZSNB 261800Z 01003MPS 330V030 6000 BKN016 08/05 Q1026 NOSIG
Loading
Personal Weather Stations






























Interactive Weather Map New forecast layout! Learn more

10-Day Weather Forecast

Advertisements
Track Severe Weather on mobile